Time;durP1;ratioP1;P1;durP2;ratioP2;P2;SDS_P1;SDS_P2;PMS_P1;PMS_P2;Temp;Humidity;BMP_temperature;BMP_pressure;BME280_temperature;BME280_humidity;BME280_pressure;Samples;Min_cycle;Max_cycle;Signal;HPM_P1;HPM_P2
2023/06/17 00:01:32;;;;;;;25.42;17.35;;;;;;;;;;8345060;28;20500;-88
2023/06/17 00:05:35;;;;;;;21.45;16.45;;;;;;;;;;8379380;28;20061;-89
2023/06/17 00:09:40;;;;;;;22.88;16.65;;;;;;;;;;8379148;28;20040;-88
2023/06/17 00:13:44;;;;;;;22.52;17.35;;;;;;;;;;8392530;28;20047;-89
2023/06/17 00:17:50;;;;;;;21.73;15.95;;;;;;;;;;8364653;28;20396;-88
2023/06/17 00:21:53;;;;;;;22.08;15.85;;;;;;;;;;8378249;28;20101;-88
2023/06/17 00:25:55;;;;;;;28.70;16.77;;;;;;;;;;8378945;28;20128;-89
2023/06/17 00:30:01;;;;;;;19.98;16.02;;;;;;;;;;8376580;28;20044;-89
2023/06/17 00:34:05;;;;;;;23.83;15.98;;;;;;;;;;8352134;28;20097;-88
2023/06/17 00:38:08;;;;;;;21.73;16.23;;;;;;;;;;8349979;28;20048;-88
2023/06/17 00:42:12;;;;;;;24.50;17.55;;;;;;;;;;8346893;28;20045;-88
2023/06/17 00:46:28;;;;;;;23.13;17.25;;;;;;;;;;8362222;28;20468;-88
2023/06/17 00:50:32;;;;;;;23.42;17.65;;;;;;;;;;8356794;28;20408;-88
2023/06/17 00:54:38;;;;;;;23.77;17.00;;;;;;;;;;8357612;28;20049;-89
2023/06/17 00:58:41;;;;;;;23.40;16.77;;;;;;;;;;8361492;28;20080;-89
2023/06/17 01:02:46;;;;;;;25.00;16.95;;;;;;;;;;8338707;28;20052;-89
2023/06/17 01:06:59;;;;;;;24.05;17.55;;;;;;;;;;8363463;28;20655;-89
2023/06/17 01:11:09;;;;;;;23.65;17.35;;;;;;;;;;8366369;28;20080;-89
2023/06/17 01:15:16;;;;;;;22.77;16.23;;;;;;;;;;8350243;28;20521;-89
2023/06/17 01:19:22;;;;;;;21.50;16.65;;;;;;;;;;8370642;28;20045;-90
2023/06/17 01:23:33;;;;;;;24.70;17.75;;;;;;;;;;8375036;28;20056;-89
2023/06/17 01:27:41;;;;;;;25.55;17.42;;;;;;;;;;8373446;28;20091;-89
2023/06/17 01:31:50;;;;;;;25.67;17.90;;;;;;;;;;8389591;28;20109;-89
2023/06/17 01:36:00;;;;;;;22.33;16.23;;;;;;;;;;8373216;28;20052;-88
2023/06/17 01:40:06;;;;;;;26.42;18.48;;;;;;;;;;8339831;28;20101;-88
2023/06/17 01:44:17;;;;;;;26.25;18.05;;;;;;;;;;8368421;28;20049;-89
2023/06/17 01:48:20;;;;;;;26.65;18.35;;;;;;;;;;8386288;28;20477;-89
2023/06/17 01:52:23;;;;;;;22.85;16.75;;;;;;;;;;8389790;28;20075;-89
2023/06/17 01:56:29;;;;;;;26.40;17.42;;;;;;;;;;8380694;28;20056;-89
2023/06/17 02:00:34;;;;;;;23.42;17.80;;;;;;;;;;8383591;28;20045;-89
2023/06/17 02:04:38;;;;;;;25.08;17.67;;;;;;;;;;8371833;28;20115;-89
2023/06/17 02:08:42;;;;;;;24.95;17.38;;;;;;;;;;8381517;28;20041;-89
2023/06/17 02:12:46;;;;;;;25.17;17.83;;;;;;;;;;8370489;28;20049;-89
2023/06/17 02:16:55;;;;;;;24.70;18.70;;;;;;;;;;8386684;28;20407;-89
2023/06/17 02:21:16;;;;;;;26.85;19.50;;;;;;;;;;8396516;28;20071;-89
2023/06/17 02:35:57;;;;;;;25.02;18.65;;;;;;;;;;8293068;28;20050;-95
2023/06/17 02:44:54;;;;;;;25.58;18.65;;;;;;;;;;8227179;29;20062;-96
2023/06/17 03:08:49;;;;;;;27.45;18.30;;;;;;;;;;8078591;29;20054;-96
2023/06/17 03:13:05;;;;;;;23.73;17.50;;;;;;;;;;8075795;29;20057;-96
2023/06/17 03:28:29;;;;;;;32.22;19.83;;;;;;;;;;8097875;29;20082;-96
2023/06/17 03:33:03;;;;;;;26.20;18.67;;;;;;;;;;8097242;29;20049;-95
2023/06/17 03:37:46;;;;;;;32.65;20.02;;;;;;;;;;8165148;29;20059;-97
2023/06/17 03:41:53;;;;;;;28.70;19.42;;;;;;;;;;8299166;28;20055;-94
2023/06/17 03:46:49;;;;;;;31.25;20.30;;;;;;;;;;8296430;28;20084;-91
2023/06/17 03:56:35;;;;;;;27.17;19.00;;;;;;;;;;8199430;29;20082;-95
2023/06/17 04:07:20;;;;;;;24.30;17.30;;;;;;;;;;8234933;29;20075;-96
2023/06/17 04:22:05;;;;;;;26.33;18.38;;;;;;;;;;8196921;29;20066;-96
2023/06/17 04:35:41;;;;;;;;;;;;;;;;;;8312738;28;20481;-90
2023/06/17 04:50:24;;;;;;;29.30;19.73;;;;;;;;;;8233822;28;20133;-91
2023/06/17 05:04:44;;;;;;;37.70;23.02;;;;;;;;;;8198672;29;20083;-94
2023/06/17 05:09:14;;;;;;;25.17;18.35;;;;;;;;;;8084202;29;20060;-90
2023/06/17 05:28:50;;;;;;;21.50;17.45;;;;;;;;;;7927122;29;20044;-92
2023/06/17 05:33:12;;;;;;;20.90;15.80;;;;;;;;;;7905969;30;20134;-89
2023/06/17 05:37:25;;;;;;;24.75;19.92;;;;;;;;;;7907931;29;20116;-89
2023/06/17 05:41:33;;;;;;;27.33;21.70;;;;;;;;;;8058161;29;20058;-91
2023/06/17 05:45:43;;;;;;;21.85;16.92;;;;;;;;;;8029627;29;20051;-89
2023/06/17 05:49:49;;;;;;;21.15;15.85;;;;;;;;;;8018369;29;20080;-94
2023/06/17 05:53:55;;;;;;;19.75;15.32;;;;;;;;;;8078251;29;20048;-95
2023/06/17 05:58:14;;;;;;;19.23;15.65;;;;;;;;;;8217237;28;20086;-90
2023/06/17 06:02:53;;;;;;;22.90;17.50;;;;;;;;;;8303312;28;20050;-90
2023/06/17 06:07:35;;;;;;;19.67;14.82;;;;;;;;;;8288454;28;20388;-90
2023/06/17 06:11:47;;;;;;;19.45;14.43;;;;;;;;;;8255761;28;20107;-88
2023/06/17 06:15:57;;;;;;;18.02;15.32;;;;;;;;;;8215389;28;20095;-89
2023/06/17 06:20:11;;;;;;;22.90;16.00;;;;;;;;;;8267414;28;20054;-89
2023/06/17 06:24:17;;;;;;;18.52;14.38;;;;;;;;;;8257768;28;20051;-89
2023/06/17 06:28:33;;;;;;;20.27;15.15;;;;;;;;;;8323291;28;20092;-88
2023/06/17 06:32:52;;;;;;;19.65;15.38;;;;;;;;;;8299441;28;20057;-90
2023/06/17 06:37:23;;;;;;;19.00;14.70;;;;;;;;;;8319610;28;20564;-89
2023/06/17 06:41:45;;;;;;;23.35;15.27;;;;;;;;;;8348041;28;20061;-89
2023/06/17 07:56:37;;;;;;;18.83;14.70;;;;;;;;;;8423421;28;20056;-93
2023/06/17 08:01:02;;;;;;;19.20;13.55;;;;;;;;;;8393076;28;20631;-90
2023/06/17 08:05:12;;;;;;;16.98;12.57;;;;;;;;;;8394907;28;20124;-89
2023/06/17 08:09:18;;;;;;;17.70;12.07;;;;;;;;;;8376497;28;20135;-88
2023/06/17 08:13:24;;;;;;;11.30;8.45;;;;;;;;;;8400189;28;20052;-90
2023/06/17 08:17:29;;;;;;;10.13;6.00;;;;;;;;;;8413709;28;20063;-88
2023/06/17 08:21:36;;;;;;;12.85;8.43;;;;;;;;;;8398965;28;20412;-89
2023/06/17 08:25:40;;;;;;;6.95;5.25;;;;;;;;;;8400171;28;20056;-89
2023/06/17 08:29:49;;;;;;;5.85;4.40;;;;;;;;;;8394528;28;20124;-91
2023/06/17 08:34:03;;;;;;;6.07;4.15;;;;;;;;;;8394686;28;20052;-89
2023/06/17 08:38:08;;;;;;;9.05;4.95;;;;;;;;;;8400577;28;20071;-89
2023/06/17 08:42:13;;;;;;;5.93;4.43;;;;;;;;;;8391558;28;20056;-89
2023/06/17 08:46:28;;;;;;;5.40;4.05;;;;;;;;;;8365957;28;20067;-89
2023/06/17 08:50:48;;;;;;;4.85;3.50;;;;;;;;;;8402584;28;20064;-89
2023/06/17 08:59:50;;;;;;;5.53;4.20;;;;;;;;;;8416453;28;20059;-90
2023/06/17 09:04:12;;;;;;;5.30;4.25;;;;;;;;;;8394337;28;20124;-89
2023/06/17 09:08:35;;;;;;;6.97;4.85;;;;;;;;;;8417098;28;20206;-87
2023/06/17 09:12:51;;;;;;;8.60;5.80;;;;;;;;;;8413435;28;20514;-90
2023/06/17 09:17:09;;;;;;;7.93;6.00;;;;;;;;;;8398450;28;20048;-88
2023/06/17 09:21:22;;;;;;;7.00;6.30;;;;;;;;;;8410192;28;20060;-88
2023/06/17 09:25:36;;;;;;;7.72;5.65;;;;;;;;;;8396064;28;20059;-90
2023/06/17 09:29:42;;;;;;;7.95;6.53;;;;;;;;;;8387492;28;20542;-89
2023/06/17 09:33:49;;;;;;;9.57;6.18;;;;;;;;;;8391552;28;20110;-92
2023/06/17 09:37:55;;;;;;;7.90;6.70;;;;;;;;;;8396396;28;20053;-89
2023/06/17 09:42:10;;;;;;;7.22;6.53;;;;;;;;;;8409395;28;20076;-93
2023/06/17 09:46:25;;;;;;;7.32;6.30;;;;;;;;;;8413214;28;20466;-91
2023/06/17 09:50:36;;;;;;;8.57;7.30;;;;;;;;;;8426847;28;20048;-89
2023/06/17 09:54:57;;;;;;;8.43;7.60;;;;;;;;;;8406343;28;20048;-89
2023/06/17 09:59:03;;;;;;;8.57;7.20;;;;;;;;;;8415430;28;20056;-91
2023/06/17 10:03:24;;;;;;;11.30;7.82;;;;;;;;;;8399518;28;20053;-89
2023/06/17 10:07:35;;;;;;;9.73;7.10;;;;;;;;;;8406185;28;20595;-92
2023/06/17 10:11:51;;;;;;;12.73;8.68;;;;;;;;;;8385819;28;20139;-90
2023/06/17 10:15:57;;;;;;;9.88;7.75;;;;;;;;;;8422776;28;20064;-94
2023/06/17 10:20:24;;;;;;;8.70;7.80;;;;;;;;;;8369789;28;20136;-91
2023/06/17 10:24:31;;;;;;;9.40;8.35;;;;;;;;;;8422252;28;20122;-89
2023/06/17 10:29:14;;;;;;;8.18;7.30;;;;;;;;;;8424342;28;20060;-88
2023/06/17 10:33:31;;;;;;;9.05;7.93;;;;;;;;;;8369395;28;20045;-90
2023/06/17 10:37:44;;;;;;;10.50;8.20;;;;;;;;;;8426296;28;20049;-89
2023/06/17 10:42:24;;;;;;;10.25;8.93;;;;;;;;;;8405466;28;20051;-88
2023/06/17 10:46:39;;;;;;;9.73;8.73;;;;;;;;;;8412968;28;20053;-91
2023/06/17 10:50:43;;;;;;;10.95;9.02;;;;;;;;;;8414131;28;20056;-93
2023/06/17 10:55:11;;;;;;;8.43;6.88;;;;;;;;;;8412597;28;20108;-91
2023/06/17 10:59:50;;;;;;;9.20;7.65;;;;;;;;;;8436298;28;20055;-88
2023/06/17 11:04:07;;;;;;;8.88;7.65;;;;;;;;;;8431495;28;20159;-93
2023/06/17 11:08:16;;;;;;;9.13;7.90;;;;;;;;;;8416766;28;20133;-90
2023/06/17 11:12:22;;;;;;;10.77;8.75;;;;;;;;;;8416098;28;20056;-90
2023/06/17 11:16:31;;;;;;;10.50;8.18;;;;;;;;;;8411464;28;20049;-89
2023/06/17 11:21:04;;;;;;;10.77;9.35;;;;;;;;;;8418232;28;20052;-87
2023/06/17 11:25:18;;;;;;;10.35;9.15;;;;;;;;;;8375813;28;20060;-88
2023/06/17 11:29:41;;;;;;;12.00;9.35;;;;;;;;;;8368225;28;20053;-90
2023/06/17 11:34:03;;;;;;;11.30;10.07;;;;;;;;;;8387494;28;20108;-90
2023/06/17 11:38:24;;;;;;;11.20;9.35;;;;;;;;;;8355243;28;20056;-87
2023/06/17 11:42:33;;;;;;;10.77;9.68;;;;;;;;;;8380931;28;20053;-89
2023/06/17 11:51:05;;;;;;;;;;;;;;;;;;8370692;28;20063;-88
2023/06/17 11:55:45;;;;;;;10.82;9.70;;;;;;;;;;8387456;28;19909;-88
2023/06/17 12:00:09;;;;;;;10.80;9.70;;;;;;;;;;8409470;28;20120;-90
2023/06/17 12:04:18;;;;;;;10.38;9.30;;;;;;;;;;8393947;28;20057;-90
2023/06/17 12:08:25;;;;;;;11.75;10.32;;;;;;;;;;8416880;28;20053;-90
2023/06/17 12:12:52;;;;;;;10.73;9.63;;;;;;;;;;8416353;28;20064;-95
2023/06/17 12:16:58;;;;;;;13.45;10.30;;;;;;;;;;8412008;28;20052;-89
2023/06/17 12:21:15;;;;;;;11.90;10.02;;;;;;;;;;8420611;28;20053;-88
2023/06/17 12:25:20;;;;;;;11.10;9.90;;;;;;;;;;8411466;28;20048;-93
2023/06/17 12:29:30;;;;;;;12.65;10.43;;;;;;;;;;8410115;28;20452;-91
2023/06/17 12:33:35;;;;;;;11.07;9.88;;;;;;;;;;8416399;28;20057;-89
2023/06/17 12:37:50;;;;;;;11.13;9.85;;;;;;;;;;8413195;28;20048;-89
2023/06/17 12:41:56;;;;;;;11.68;9.90;;;;;;;;;;8395627;28;20461;-92
2023/06/17 12:46:02;;;;;;;12.82;9.85;;;;;;;;;;8412573;28;20063;-91
2023/06/17 12:50:15;;;;;;;11.75;8.85;;;;;;;;;;8413313;28;20033;-89
2023/06/17 12:54:45;;;;;;;10.90;8.90;;;;;;;;;;8416704;28;20068;-90
2023/06/17 12:59:10;;;;;;;13.65;11.05;;;;;;;;;;8419602;28;20056;-89
2023/06/17 13:03:26;;;;;;;10.05;8.90;;;;;;;;;;8395875;28;20116;-91
2023/06/17 13:07:47;;;;;;;11.57;9.23;;;;;;;;;;8394791;28;20059;-93
2023/06/17 13:11:54;;;;;;;10.48;9.40;;;;;;;;;;8416127;28;20032;-87
2023/06/17 13:16:09;;;;;;;10.65;8.73;;;;;;;;;;8400778;28;20071;-88
2023/06/17 13:20:18;;;;;;;13.43;8.30;;;;;;;;;;8418650;28;20072;-93
2023/06/17 13:24:22;;;;;;;8.98;7.88;;;;;;;;;;8413484;28;20048;-90
2023/06/17 13:28:32;;;;;;;10.13;9.13;;;;;;;;;;8416746;28;20068;-89
2023/06/17 13:32:58;;;;;;;10.65;9.38;;;;;;;;;;8420109;28;20052;-89
2023/06/17 13:37:03;;;;;;;9.80;8.48;;;;;;;;;;8418151;28;20049;-93
2023/06/17 13:41:07;;;;;;;12.18;8.98;;;;;;;;;;8418377;28;20068;-88
2023/06/17 13:45:28;;;;;;;12.68;9.57;;;;;;;;;;8426233;28;20048;-88
2023/06/17 13:49:34;;;;;;;11.85;9.00;;;;;;;;;;8404321;28;20039;-89
2023/06/17 13:53:46;;;;;;;10.18;8.60;;;;;;;;;;8421917;28;20071;-87
2023/06/17 13:58:23;;;;;;;12.68;9.00;;;;;;;;;;8296903;28;20085;-87
2023/06/17 14:03:01;;;;;;;8.93;8.02;;;;;;;;;;8331269;28;20053;-89
2023/06/17 14:07:18;;;;;;;11.68;9.05;;;;;;;;;;8317765;28;20058;-88
2023/06/17 14:11:25;;;;;;;11.77;8.45;;;;;;;;;;8310618;28;20069;-94
2023/06/17 14:15:28;;;;;;;9.18;7.72;;;;;;;;;;8355545;28;20061;-89
2023/06/17 14:19:33;;;;;;;10.30;8.18;;;;;;;;;;8415788;28;20063;-89
2023/06/17 14:23:54;;;;;;;10.32;7.93;;;;;;;;;;8416984;28;20131;-92
2023/06/17 14:28:08;;;;;;;9.98;7.80;;;;;;;;;;8424760;28;20071;-88
2023/06/17 14:32:13;;;;;;;10.10;7.97;;;;;;;;;;8426449;28;20053;-87
2023/06/17 14:36:20;;;;;;;9.55;7.90;;;;;;;;;;8417632;28;20033;-89
2023/06/17 14:40:45;;;;;;;11.70;8.55;;;;;;;;;;8404140;28;20044;-94
2023/06/17 14:44:50;;;;;;;12.20;8.05;;;;;;;;;;8417443;28;20056;-90
2023/06/17 14:48:53;;;;;;;10.35;8.40;;;;;;;;;;8414246;28;20044;-96
2023/06/17 14:52:56;;;;;;;14.10;8.63;;;;;;;;;;8407224;28;20047;-92
2023/06/17 14:57:00;;;;;;;9.85;7.82;;;;;;;;;;8411481;28;20413;-90
2023/06/17 15:01:03;;;;;;;14.60;9.13;;;;;;;;;;8376443;28;20059;-94
2023/06/17 15:05:07;;;;;;;12.27;8.32;;;;;;;;;;8394583;28;20079;-90
2023/06/17 15:09:32;;;;;;;10.48;6.85;;;;;;;;;;8406766;28;20056;-91
2023/06/17 15:13:35;;;;;;;8.95;7.13;;;;;;;;;;8406852;28;20048;-89
2023/06/17 15:17:43;;;;;;;15.50;6.93;;;;;;;;;;8411229;28;20052;-91
2023/06/17 15:21:51;;;;;;;13.18;9.15;;;;;;;;;;8416097;28;20127;-90
2023/06/17 15:25:55;;;;;;;17.77;11.18;;;;;;;;;;8409719;28;20048;-89
2023/06/17 15:29:58;;;;;;;13.77;11.85;;;;;;;;;;8403151;28;20064;-88
2023/06/17 15:34:03;;;;;;;14.80;10.85;;;;;;;;;;8409473;28;20124;-92
2023/06/17 15:38:14;;;;;;;16.80;10.40;;;;;;;;;;8410746;28;20082;-89
2023/06/17 15:42:28;;;;;;;10.43;8.88;;;;;;;;;;8409891;28;20049;-90
2023/06/17 15:46:32;;;;;;;11.20;8.55;;;;;;;;;;8363958;28;20102;-91
2023/06/17 15:50:43;;;;;;;15.63;8.55;;;;;;;;;;8408207;28;20068;-89
2023/06/17 15:54:48;;;;;;;10.45;8.95;;;;;;;;;;8420837;28;20091;-89
2023/06/17 15:58:54;;;;;;;11.68;9.32;;;;;;;;;;8408222;28;20045;-87
2023/06/17 16:03:26;;;;;;;13.07;9.18;;;;;;;;;;8377464;28;20044;-89
2023/06/17 16:07:31;;;;;;;10.98;8.63;;;;;;;;;;8345398;28;20079;-87
2023/06/17 16:11:35;;;;;;;13.32;9.00;;;;;;;;;;8392191;28;20063;-87
2023/06/17 16:15:42;;;;;;;11.30;8.38;;;;;;;;;;8402519;28;20048;-88
2023/06/17 16:19:45;;;;;;;10.85;8.45;;;;;;;;;;8393474;28;20053;-91
2023/06/17 16:23:54;;;;;;;13.25;8.50;;;;;;;;;;8394634;28;20084;-91
2023/06/17 16:27:57;;;;;;;11.25;9.40;;;;;;;;;;8391875;28;20060;-90
2023/06/17 16:32:01;;;;;;;11.43;9.02;;;;;;;;;;8402366;28;20061;-90
2023/06/17 16:36:06;;;;;;;11.90;8.93;;;;;;;;;;8406857;28;20075;-92
2023/06/17 16:40:32;;;;;;;9.98;8.50;;;;;;;;;;8389306;28;20067;-87
2023/06/17 16:44:40;;;;;;;11.73;8.77;;;;;;;;;;8390789;28;20061;-88
2023/06/17 16:48:55;;;;;;;11.57;8.75;;;;;;;;;;8347774;28;20076;-93
2023/06/17 16:52:58;;;;;;;10.80;9.27;;;;;;;;;;8392470;28;20063;-91
2023/06/17 16:57:02;;;;;;;11.80;9.77;;;;;;;;;;8381035;28;20143;-88
2023/06/17 17:01:05;;;;;;;11.73;9.15;;;;;;;;;;8382544;28;20528;-96
2023/06/17 17:05:09;;;;;;;16.25;9.18;;;;;;;;;;8388460;28;20158;-91
2023/06/17 17:09:12;;;;;;;13.77;9.75;;;;;;;;;;8392359;28;20052;-90
2023/06/17 17:13:16;;;;;;;12.07;9.27;;;;;;;;;;8392650;28;20572;-87
2023/06/17 17:17:20;;;;;;;13.88;10.38;;;;;;;;;;8392887;28;20381;-94
2023/06/17 17:21:23;;;;;;;14.13;9.50;;;;;;;;;;8393932;28;20138;-87
2023/06/17 17:25:26;;;;;;;12.27;10.27;;;;;;;;;;8393143;28;20479;-92
2023/06/17 17:29:30;;;;;;;16.30;10.27;;;;;;;;;;8392539;28;20847;-91
2023/06/17 17:33:33;;;;;;;12.65;10.48;;;;;;;;;;8395442;28;20044;-92
2023/06/17 17:37:36;;;;;;;11.90;10.20;;;;;;;;;;8389358;28;20060;-87
2023/06/17 17:41:41;;;;;;;17.77;10.30;;;;;;;;;;8387392;28;20071;-89
2023/06/17 17:45:45;;;;;;;13.10;10.30;;;;;;;;;;8390717;28;20496;-91
2023/06/17 17:49:48;;;;;;;13.85;10.52;;;;;;;;;;8393667;28;20580;-95
2023/06/17 17:53:51;;;;;;;14.68;11.63;;;;;;;;;;8389239;28;20129;-87
2023/06/17 17:57:54;;;;;;;16.17;11.70;;;;;;;;;;8360666;28;20750;-87
2023/06/17 18:01:58;;;;;;;15.88;12.68;;;;;;;;;;8348695;28;20539;-89
2023/06/17 18:06:01;;;;;;;17.17;13.88;;;;;;;;;;8359159;28;20516;-87
2023/06/17 18:10:05;;;;;;;17.02;14.35;;;;;;;;;;8364132;28;20056;-88
2023/06/17 18:14:08;;;;;;;19.40;14.95;;;;;;;;;;8361654;28;20136;-88
2023/06/17 18:18:13;;;;;;;20.63;14.00;;;;;;;;;;8362057;28;20060;-89
2023/06/17 18:22:18;;;;;;;16.10;14.30;;;;;;;;;;8354193;28;20064;-90
2023/06/17 18:26:22;;;;;;;16.77;14.23;;;;;;;;;;8360177;28;20120;-93
2023/06/17 18:30:25;;;;;;;15.52;13.93;;;;;;;;;;8364602;28;20536;-94
2023/06/17 18:34:30;;;;;;;15.00;13.18;;;;;;;;;;8355990;28;20048;-88
2023/06/17 18:38:33;;;;;;;13.23;11.75;;;;;;;;;;8364184;28;20076;-95
2023/06/17 18:42:36;;;;;;;14.38;12.65;;;;;;;;;;8372265;28;20098;-91
2023/06/17 18:46:40;;;;;;;13.15;11.50;;;;;;;;;;8364531;28;20087;-88
2023/06/17 18:50:44;;;;;;;14.13;12.60;;;;;;;;;;8354734;28;20107;-96
2023/06/17 18:54:49;;;;;;;15.55;13.85;;;;;;;;;;8370673;28;20049;-89
2023/06/17 18:58:54;;;;;;;16.50;13.35;;;;;;;;;;8403704;28;20676;-95
2023/06/17 19:02:59;;;;;;;13.68;12.27;;;;;;;;;;8401174;28;20059;-87
2023/06/17 19:07:04;;;;;;;14.75;13.15;;;;;;;;;;8397296;28;20048;-88
2023/06/17 19:11:07;;;;;;;14.40;12.50;;;;;;;;;;8399106;28;20568;-90
2023/06/17 19:15:11;;;;;;;16.45;13.80;;;;;;;;;;8396480;28;20048;-89
2023/06/17 19:19:14;;;;;;;61.22;39.40;;;;;;;;;;8396782;28;20492;-90
2023/06/17 19:23:19;;;;;;;20.02;15.55;;;;;;;;;;8396755;28;20060;-86
2023/06/17 19:27:22;;;;;;;162.90;76.95;;;;;;;;;;8396667;28;20515;-88
2023/06/17 19:31:25;;;;;;;27.27;19.42;;;;;;;;;;8397732;28;20060;-87
2023/06/17 19:35:28;;;;;;;22.35;18.15;;;;;;;;;;8396152;28;20568;-88
2023/06/17 19:39:33;;;;;;;22.88;18.45;;;;;;;;;;8396308;28;20048;-88
2023/06/17 19:43:39;;;;;;;26.58;20.80;;;;;;;;;;8400795;28;20064;-88
2023/06/17 19:52:34;;;;;;;24.08;19.80;;;;;;;;;;8385122;28;20105;-94
2023/06/17 19:56:40;;;;;;;25.33;20.02;;;;;;;;;;8396764;28;20061;-93
2023/06/17 20:00:43;;;;;;;23.40;19.20;;;;;;;;;;8396746;28;20051;-85
2023/06/17 20:04:46;;;;;;;22.17;18.23;;;;;;;;;;8396542;28;20072;-85
2023/06/17 20:08:49;;;;;;;22.73;19.58;;;;;;;;;;8396489;28;20493;-85
2023/06/17 20:12:57;;;;;;;26.33;19.98;;;;;;;;;;8396788;28;20087;-88
2023/06/17 20:17:00;;;;;;;24.35;19.13;;;;;;;;;;8392011;28;20182;-85
2023/06/17 20:21:04;;;;;;;22.98;18.10;;;;;;;;;;8396955;28;20057;-93
2023/06/17 20:25:07;;;;;;;24.90;20.38;;;;;;;;;;8409630;28;20052;-92
2023/06/17 20:29:12;;;;;;;27.45;21.42;;;;;;;;;;8396779;28;20423;-86
2023/06/17 20:33:16;;;;;;;23.80;20.63;;;;;;;;;;8396446;28;20044;-95
2023/06/17 20:37:19;;;;;;;29.73;20.70;;;;;;;;;;8395322;28;20151;-88
2023/06/17 20:41:22;;;;;;;24.77;18.75;;;;;;;;;;8396185;28;20057;-86
2023/06/17 20:45:27;;;;;;;28.88;21.17;;;;;;;;;;8383121;28;20060;-95
2023/06/17 20:49:30;;;;;;;24.92;20.33;;;;;;;;;;8396537;28;20774;-86
2023/06/17 20:53:33;;;;;;;24.50;20.95;;;;;;;;;;8382740;28;20075;-94
2023/06/17 20:57:36;;;;;;;25.35;19.95;;;;;;;;;;8396682;28;20063;-94
2023/06/17 21:01:40;;;;;;;23.65;19.50;;;;;;;;;;8396383;28;20627;-92
2023/06/17 21:05:44;;;;;;;26.05;20.33;;;;;;;;;;8388214;28;20140;-88
2023/06/17 21:09:47;;;;;;;24.67;20.00;;;;;;;;;;8397801;28;20552;-94
2023/06/17 21:13:50;;;;;;;22.30;19.77;;;;;;;;;;8396655;28;20057;-89
2023/06/17 21:17:54;;;;;;;24.40;19.58;;;;;;;;;;8396850;28;20056;-90
2023/06/17 21:21:57;;;;;;;24.58;19.15;;;;;;;;;;8396850;28;20059;-88
2023/06/17 21:26:01;;;;;;;20.73;17.92;;;;;;;;;;8396318;28;20084;-90
2023/06/17 21:30:04;;;;;;;23.13;17.63;;;;;;;;;;8392058;28;20613;-91
2023/06/17 21:34:09;;;;;;;24.55;19.50;;;;;;;;;;8395091;28;20074;-94
2023/06/17 21:38:12;;;;;;;23.98;18.98;;;;;;;;;;8402082;28;20049;-88
2023/06/17 21:42:15;;;;;;;25.30;19.80;;;;;;;;;;8395009;28;20048;-92
2023/06/17 21:46:19;;;;;;;23.60;18.17;;;;;;;;;;8401804;28;20053;-90
2023/06/17 21:50:23;;;;;;;24.13;18.33;;;;;;;;;;8401823;28;20052;-94
2023/06/17 21:54:26;;;;;;;23.92;20.23;;;;;;;;;;8400721;28;20412;-93
2023/06/17 21:58:29;;;;;;;24.75;20.38;;;;;;;;;;8401395;28;20094;-90
2023/06/17 22:02:32;;;;;;;25.70;21.13;;;;;;;;;;8401637;28;20071;-88
2023/06/17 22:06:36;;;;;;;21.38;19.00;;;;;;;;;;8400993;28;20086;-95
2023/06/17 22:10:39;;;;;;;24.83;19.60;;;;;;;;;;8402479;28;20052;-95
2023/06/17 22:14:42;;;;;;;23.80;20.05;;;;;;;;;;8391560;28;20143;-87
2023/06/17 22:18:45;;;;;;;24.40;20.63;;;;;;;;;;8410635;28;20175;-87
2023/06/17 22:22:49;;;;;;;25.25;21.15;;;;;;;;;;8415655;28;20049;-86
2023/06/17 22:26:52;;;;;;;27.05;21.50;;;;;;;;;;8400733;28;20049;-87
2023/06/17 22:30:55;;;;;;;26.38;21.48;;;;;;;;;;8400006;28;20048;-93
2023/06/17 22:34:58;;;;;;;27.50;22.45;;;;;;;;;;8399890;28;20052;-95
2023/06/17 22:39:03;;;;;;;29.92;21.90;;;;;;;;;;8400160;28;20062;-88
2023/06/17 22:43:06;;;;;;;26.17;22.05;;;;;;;;;;8400422;28;20147;-92
2023/06/17 22:47:09;;;;;;;27.00;21.40;;;;;;;;;;8399407;28;20175;-94
2023/06/17 22:51:12;;;;;;;25.90;20.88;;;;;;;;;;8400753;28;20148;-94
2023/06/17 22:55:16;;;;;;;25.85;20.67;;;;;;;;;;8392541;28;20048;-94
2023/06/17 22:59:19;;;;;;;24.38;19.95;;;;;;;;;;8371220;28;20499;-95
2023/06/17 23:03:22;;;;;;;25.33;20.02;;;;;;;;;;8383621;28;20132;-87
2023/06/17 23:07:25;;;;;;;27.95;20.83;;;;;;;;;;8354595;28;20100;-88
2023/06/17 23:11:29;;;;;;;28.33;21.00;;;;;;;;;;8386802;28;20510;-87
2023/06/17 23:15:33;;;;;;;26.65;21.42;;;;;;;;;;8393447;28;20067;-87
2023/06/17 23:19:36;;;;;;;28.27;20.35;;;;;;;;;;8399000;28;20433;-87
2023/06/17 23:23:38;;;;;;;27.85;21.08;;;;;;;;;;8390480;28;20049;-92
2023/06/17 23:27:43;;;;;;;26.33;20.20;;;;;;;;;;8363517;28;20056;-90
2023/06/17 23:31:46;;;;;;;28.77;21.17;;;;;;;;;;8379538;28;20555;-92
2023/06/17 23:35:49;;;;;;;25.27;20.67;;;;;;;;;;8381074;28;20047;-93
2023/06/17 23:39:51;;;;;;;24.33;19.52;;;;;;;;;;8376147;28;20053;-92
2023/06/17 23:43:56;;;;;;;27.58;21.05;;;;;;;;;;8361092;28;20049;-93
2023/06/17 23:47:59;;;;;;;31.27;22.38;;;;;;;;;;8375272;28;20067;-91
2023/06/17 23:52:01;;;;;;;33.13;25.58;;;;;;;;;;8360277;28;20054;-96
2023/06/17 23:56:04;;;;;;;34.03;23.75;;;;;;;;;;8390719;28;20052;-88
